PWSweather.com
Personal Weather Stations
Station Observations
KAZSIERR7
Canyon De Flores, Sierra Vista, AZ 85650

Canyon De FloresSierra Vista, AZ 85650

Lat: 31.5, Lon: -110.26

Elevation: 4645

Station Type: LaCrosse WS-3610 & Boltek Lightning Detector

http://www.lightningring.com/weather/

High Low Average
Temperature 0.0°F-17.8°F 0.0°F-17.8°F 0.0°F-17.8°F
Dew Point 0.0°F-17.8°F 0.0°F-17.8°F 0.0°F-17.8°F
Winds Calm Calm Calm Calm Calm Calm
Wind Gusts -- -- --
Humidity 0% 0% 0%
Pressure 0.00 in0.00 in 0.00 in0.00 in -
Precipitation 0.00 in0.00 in - -
Hour Temp Dew Point Humidity Winds Wind Gusts Pressure Precip Precip Rate Daily Precip Total
05:28 PM 35.2°F1.8°C 30.8°F-0.7°C 84% Calm Calm -- 30.10 in1019.3 mb 0.00 in0.0 mm 0.00 in/hr0.0 mm/hr 0.00 in0.0 mm
05:29 PM 30.6°F-0.8°C 26.3°F-3.2°C 84% Calm Calm -- 30.11 in1019.6 mb 0.00 in0.0 mm 0.00 in/hr0.0 mm/hr 0.00 in0.0 mm
05:30 PM 53.3°F11.8°C 16.3°F-8.7°C 23% 1.2 mph W1.9 kmh W 7.0 mph11.3 kmh 29.89 in1012.2 mb 0.00 in0.0 mm 0.00 in/hr0.0 mm/hr 0.00 in0.0 mm
05:31 PM 36.4°F2.4°C 24.7°F-4.1°C 62% Calm Calm -- 30.01 in1016.3 mb 0.00 in0.0 mm 0.00 in/hr0.0 mm/hr 0.00 in0.0 mm
05:32 PM 48.9°F9.4°C 25.5°F-3.6°C 40% 11.1 mph SE17.9 kmh SE 33.0 mph53.1 kmh 29.93 in1013.5 mb 0.00 in0.0 mm 0.00 in/hr0.0 mm/hr 0.00 in0.0 mm
05:33 PM 55.6°F13.1°C 21.9°F-5.6°C 27% 3.3 mph W5.3 kmh W 37.0 mph59.5 kmh 29.93 in1013.5 mb 0.00 in0.0 mm 0.00 in/hr0.0 mm/hr 0.00 in0.0 mm
05:34 PM 53.5°F11.9°C 16.5°F-8.6°C 23% 5.3 mph WNW8.5 kmh WNW 38.8 mph62.4 kmh 29.88 in1011.9 mb 0.00 in0.0 mm 0.00 in/hr0.0 mm/hr 0.00 in0.0 mm
05:42 PM 52.8°F11.6°C 17.7°F-7.9°C 25% 5.5 mph WSW8.9 kmh WSW 59.8 mph96.2 kmh 29.90 in1012.5 mb 0.00 in0.0 mm 0.00 in/hr0.0 mm/hr 0.02 in0.5 mm
05:52 PM 51.4°F10.8°C 18.4°F-7.6°C 27% 3.2 mph W5.1 kmh W 48.2 mph77.6 kmh 29.90 in1012.5 mb 0.00 in0.0 mm 0.00 in/hr0.0 mm/hr 0.02 in0.5 mm
06:03 PM 50.7°F10.4°C 17.7°F-7.9°C 27% 6.5 mph WSW10.5 kmh WSW 9.2 mph14.8 kmh 29.90 in1012.5 mb 0.00 in0.0 mm 0.00 in/hr0.0 mm/hr 0.02 in0.5 mm
06:13 PM 50.4°F10.2°C 17.5°F-8.1°C 27% Calm Calm 5.2 mph8.4 kmh 29.90 in1012.5 mb 0.00 in0.0 mm 0.00 in/hr0.0 mm/hr 0.02 in0.5 mm
06:24 PM 50.2°F10.1°C 18.9°F-7.3°C 29% 4.5 mph WSW7.2 kmh WSW 45.0 mph72.4 kmh 29.90 in1012.5 mb 0.00 in0.0 mm 0.00 in/hr0.0 mm/hr 0.02 in0.5 mm
06:35 PM 49.7°F9.8°C 19.3°F-7.1°C 30% 0.3 mph W0.5 kmh W 42.0 mph67.6 kmh 29.91 in1012.9 mb 0.00 in0.0 mm 0.00 in/hr0.0 mm/hr 0.02 in0.5 mm
06:45 PM 49.4°F9.7°C 19.7°F-6.8°C 31% Calm Calm 2.2 mph3.5 kmh 29.92 in1013.2 mb 0.00 in0.0 mm 0.00 in/hr0.0 mm/hr 0.02 in0.5 mm
06:56 PM 49.1°F9.5°C 20.3°F-6.5°C 32% Calm Calm 3.0 mph4.8 kmh 29.92 in1013.2 mb 0.00 in0.0 mm 0.00 in/hr0.0 mm/hr 0.02 in0.5 mm
07:06 PM 49.0°F9.4°C 20.2°F-6.6°C 32% Calm Calm 3.0 mph4.8 kmh 29.93 in1013.5 mb 0.00 in0.0 mm 0.00 in/hr0.0 mm/hr 0.02 in0.5 mm
07:17 PM 48.3°F9.1°C 21.0°F-6.1°C 34% 0.6 mph W1.0 kmh W 0.8 mph1.3 kmh 29.93 in1013.5 mb 0.00 in0.0 mm 0.00 in/hr0.0 mm/hr 0.02 in0.5 mm
07:27 PM 48.5°F9.2°C 21.8°F-5.7°C 35% 4.1 mph W6.6 kmh W 53.6 mph86.3 kmh 29.93 in1013.5 mb 0.00 in0.0 mm 0.00 in/hr0.0 mm/hr 0.02 in0.5 mm
07:38 PM 47.8°F8.8°C 21.9°F-5.6°C 36% Calm Calm 2.6 mph4.2 kmh 29.94 in1013.9 mb 0.00 in0.0 mm 0.00 in/hr0.0 mm/hr 0.02 in0.5 mm
07:48 PM 47.6°F8.7°C 22.4°F-5.3°C 37% 0.8 mph W1.3 kmh W 6.6 mph10.6 kmh 29.94 in1013.9 mb 0.00 in0.0 mm 0.00 in/hr0.0 mm/hr 0.02 in0.5 mm
07:59 PM 47.2°F8.4°C 22.7°F-5.2°C 38% Calm Calm 9.8 mph15.8 kmh 29.94 in1013.9 mb 0.00 in0.0 mm 0.00 in/hr0.0 mm/hr 0.02 in0.5 mm
08:09 PM 46.2°F7.9°C 22.4°F-5.3°C 39% 1.9 mph W3.1 kmh W 2.6 mph4.2 kmh 29.95 in1014.2 mb 0.00 in0.0 mm 0.00 in/hr0.0 mm/hr 0.02 in0.5 mm
08:20 PM 46.0°F7.8°C 24.0°F-4.4°C 42% Calm Calm 3.4 mph5.5 kmh 29.96 in1014.6 mb 0.00 in0.0 mm 0.00 in/hr0.0 mm/hr 0.02 in0.5 mm
08:30 PM 46.3°F7.9°C 24.3°F-4.3°C 42% 2.4 mph NW3.9 kmh NW 6.2 mph10.0 kmh 29.96 in1014.6 mb 0.00 in0.0 mm 0.00 in/hr0.0 mm/hr 0.02 in0.5 mm
08:41 PM 46.3°F7.9°C 24.9°F-3.9°C 43% Calm Calm 6.2 mph10.0 kmh 29.97 in1014.9 mb 0.00 in0.0 mm 0.00 in/hr0.0 mm/hr 0.02 in0.5 mm
08:51 PM 45.6°F7.6°C 25.4°F-3.7°C 45% 1.7 mph WNW2.7 kmh WNW 3.0 mph4.8 kmh 29.98 in1015.2 mb 0.00 in0.0 mm 0.00 in/hr0.0 mm/hr 0.02 in0.5 mm
09:02 PM 45.3°F7.4°C 25.6°F-3.6°C 46% Calm Calm 2.2 mph3.5 kmh 29.97 in1014.9 mb 0.00 in0.0 mm 0.00 in/hr0.0 mm/hr 0.02 in0.5 mm
09:12 PM 45.4°F7.4°C 26.3°F-3.2°C 47% 1.3 mph W2.1 kmh W 4.8 mph7.7 kmh 29.98 in1015.2 mb 0.00 in0.0 mm 0.00 in/hr0.0 mm/hr 0.02 in0.5 mm
09:23 PM 45.3°F7.4°C 26.2°F-3.2°C 47% 3.1 mph NW5.0 kmh NW 40.6 mph65.3 kmh 29.98 in1015.2 mb 0.00 in0.0 mm 0.00 in/hr0.0 mm/hr 0.02 in0.5 mm
09:33 PM 45.4°F7.4°C 26.3°F-3.2°C 47% 1.8 mph W2.9 kmh W 8.8 mph14.2 kmh 29.98 in1015.2 mb 0.00 in0.0 mm 0.00 in/hr0.0 mm/hr 0.02 in0.5 mm
09:44 PM 44.9°F7.2°C 25.8°F-3.4°C 47% 3.5 mph W5.6 kmh W 5.8 mph9.3 kmh 29.98 in1015.2 mb 0.00 in0.0 mm 0.00 in/hr0.0 mm/hr 0.02 in0.5 mm
09:54 PM 44.7°F7.1°C 26.1°F-3.3°C 48% Calm Calm 5.8 mph9.3 kmh 29.99 in1015.6 mb 0.00 in0.0 mm 0.00 in/hr0.0 mm/hr 0.02 in0.5 mm
10:05 PM 44.7°F7.1°C 26.1°F-3.3°C 48% 2.3 mph W3.7 kmh W 3.0 mph4.8 kmh 30.00 in1015.9 mb 0.00 in0.0 mm 0.00 in/hr0.0 mm/hr 0.02 in0.5 mm
10:15 PM 45.3°F7.4°C 25.6°F-3.6°C 46% 3.7 mph WNW6.0 kmh WNW 6.6 mph10.6 kmh 30.00 in1015.9 mb 0.00 in0.0 mm 0.00 in/hr0.0 mm/hr 0.02 in0.5 mm
10:26 PM 44.9°F7.2°C 25.3°F-3.7°C 46% 3.3 mph WNW5.3 kmh WNW 6.6 mph10.6 kmh 30.00 in1015.9 mb 0.00 in0.0 mm 0.00 in/hr0.0 mm/hr 0.02 in0.5 mm
10:36 PM 44.7°F7.1°C 25.1°F-3.8°C 46% 3.2 mph SW5.1 kmh SW 33.4 mph53.8 kmh 30.01 in1016.3 mb 0.00 in0.0 mm 0.00 in/hr0.0 mm/hr 0.02 in0.5 mm
10:47 PM 44.7°F7.1°C 23.4°F-4.8°C 43% 2.6 mph SW4.2 kmh SW 4.8 mph7.7 kmh 30.00 in1015.9 mb 0.00 in0.0 mm 0.00 in/hr0.0 mm/hr 0.02 in0.5 mm
10:57 PM 44.5°F6.9°C 25.9°F-3.4°C 48% Calm Calm 3.4 mph5.5 kmh 30.01 in1016.3 mb 0.00 in0.0 mm 0.00 in/hr0.0 mm/hr 0.02 in0.5 mm
11:08 PM 44.5°F6.9°C 24.3°F-4.3°C 45% 0.6 mph W1.0 kmh W 3.0 mph4.8 kmh 30.01 in1016.3 mb 0.00 in0.0 mm 0.00 in/hr0.0 mm/hr 0.02 in0.5 mm
11:18 PM 44.9°F7.2°C 24.2°F-4.3°C 44% 3.8 mph WSW6.1 kmh WSW 5.2 mph8.4 kmh 30.01 in1016.3 mb 0.00 in0.0 mm 0.00 in/hr0.0 mm/hr 0.02 in0.5 mm
11:29 PM 45.1°F7.3°C 20.8°F-6.2°C 38% 5.7 mph WSW9.2 kmh WSW 7.6 mph12.2 kmh 30.01 in1016.3 mb 0.00 in0.0 mm 0.00 in/hr0.0 mm/hr 0.02 in0.5 mm
11:39 PM 45.3°F7.4°C 19.0°F-7.2°C 35% 1.4 mph WNW2.3 kmh WNW 5.8 mph9.3 kmh 30.01 in1016.3 mb 0.00 in0.0 mm 0.00 in/hr0.0 mm/hr 0.02 in0.5 mm
11:50 PM 45.6°F7.6°C 17.2°F-8.2°C 32% 1.5 mph WSW2.4 kmh WSW 6.2 mph10.0 kmh 30.01 in1016.3 mb 0.00 in0.0 mm 0.00 in/hr0.0 mm/hr 0.02 in0.5 mm